createdAt,value
2019-02-12T00:01:09.985Z,66.41
2019-02-12T00:03:38.689Z,67.28
2019-02-12T00:06:07.126Z,67.29
2019-02-12T00:08:35.624Z,67.30
2019-02-12T00:11:04.099Z,66.92
2019-02-12T00:13:33.306Z,67.44
2019-02-12T00:16:02.408Z,67.13
2019-02-12T00:18:31.012Z,68.41
2019-02-12T00:20:59.773Z,67.49
2019-02-12T00:23:28.559Z,67.51
2019-02-12T00:25:57.350Z,68.17
2019-02-12T00:28:26.553Z,67.90
2019-02-12T00:30:55.557Z,67.99
2019-02-12T00:33:24.441Z,67.63
2019-02-12T00:35:53.222Z,68.15
2019-02-12T00:38:21.967Z,68.55
2019-02-12T00:40:50.404Z,68.36
2019-02-12T00:43:19.882Z,68.22
2019-02-12T00:45:48.498Z,68.72
2019-02-12T00:48:17.561Z,68.71
2019-02-12T00:50:46.698Z,68.93
2019-02-12T00:53:15.507Z,69.01
2019-02-12T00:55:44.456Z,68.75
2019-02-12T00:58:13.453Z,68.68
2019-02-12T01:00:42.061Z,69.04
2019-02-12T01:03:10.894Z,69.46
2019-02-12T01:05:39.543Z,68.81
2019-02-12T01:08:08.233Z,69.19
2019-02-12T01:10:36.918Z,69.51
2019-02-12T01:13:05.744Z,69.36
2019-02-12T01:15:36.887Z,69.63
2019-02-12T01:18:05.309Z,69.99
2019-02-12T01:20:33.747Z,69.97
2019-02-12T01:23:02.850Z,69.98
2019-02-12T01:25:31.284Z,69.89
2019-02-12T01:28:00.033Z,69.71
2019-02-12T01:30:30.642Z,70.19
2019-02-12T01:32:59.126Z,69.81
2019-02-12T01:35:29.113Z,69.92
2019-02-12T01:37:58.255Z,69.58
2019-02-12T01:40:26.691Z,70.07
2019-02-12T01:42:55.121Z,70.66
2019-02-12T01:45:23.920Z,70.33
2019-02-12T01:47:52.638Z,71.13
2019-02-12T01:50:21.073Z,70.81
2019-02-12T01:52:49.836Z,70.84
2019-02-12T01:55:18.932Z,71.20
2019-02-12T01:57:47.955Z,71.34
2019-02-12T02:00:16.671Z,71.48
2019-02-12T02:02:45.922Z,71.93
2019-02-12T02:05:14.595Z,71.50
2019-02-12T02:07:43.040Z,71.64
2019-02-12T02:10:14.457Z,71.74
2019-02-12T02:12:43.420Z,72.22
2019-02-12T02:15:12.214Z,72.61
2019-02-12T02:17:40.654Z,73.08
2019-02-12T02:20:11.057Z,73.17
2019-02-12T02:22:39.604Z,73.64
2019-02-12T02:25:09.411Z,73.81
2019-02-12T02:27:38.034Z,74.18
2019-02-12T02:30:08.018Z,73.77
2019-02-12T02:32:37.929Z,74.29
2019-02-12T02:35:09.059Z,74.10
2019-02-12T02:37:37.852Z,74.07
2019-02-12T02:40:06.948Z,74.53
2019-02-12T02:42:35.407Z,73.97
2019-02-12T02:45:04.220Z,74.21
2019-02-12T02:47:32.665Z,74.94
2019-02-12T02:50:03.317Z,74.78
2019-02-12T02:52:31.583Z,75.16
2019-02-12T02:55:00.499Z,75.12
2019-02-12T02:57:29.620Z,75.72
2019-02-12T02:59:58.385Z,75.41
2019-02-12T03:02:27.273Z,75.51
2019-02-12T03:04:56.155Z,75.54
2019-02-12T03:07:24.589Z,76.11
2019-02-12T03:09:53.330Z,76.04
2019-02-12T03:12:22.130Z,76.35
2019-02-12T03:14:51.286Z,76.78
2019-02-12T03:17:19.723Z,77.20
2019-02-12T03:19:48.557Z,77.29
2019-02-12T03:22:17.369Z,77.82
2019-02-12T03:24:46.321Z,77.53
2019-02-12T03:27:15.359Z,78.28
2019-02-12T03:29:44.066Z,78.20
2019-02-12T03:32:12.861Z,78.65
2019-02-12T03:34:41.528Z,78.72
2019-02-12T03:37:09.980Z,78.84
2019-02-12T03:39:39.282Z,78.94
2019-02-12T03:42:08.082Z,78.81
2019-02-12T03:44:36.531Z,78.94
2019-02-12T03:47:04.966Z,78.64
2019-02-12T03:49:33.662Z,78.83
2019-02-12T03:52:02.115Z,78.83
2019-02-12T03:54:30.901Z,79.06
2019-02-12T03:56:59.328Z,78.99
2019-02-12T03:59:27.769Z,79.39
2019-02-12T04:01:56.200Z,79.11
2019-02-12T04:04:24.920Z,79.06
2019-02-12T04:06:53.359Z,79.13
2019-02-12T04:09:22.084Z,78.88
2019-02-12T04:11:50.839Z,79.02
2019-02-12T04:14:19.287Z,78.74
2019-02-12T04:16:48.063Z,78.83
2019-02-12T04:19:16.509Z,79.15
2019-02-12T04:21:45.265Z,79.43
2019-02-12T04:24:13.966Z,79.74
2019-02-12T04:26:42.399Z,79.88
2019-02-12T04:29:11.160Z,80.19
2019-02-12T04:31:39.595Z,80.55
2019-02-12T04:34:08.531Z,81.23
2019-02-12T04:36:36.961Z,81.41
2019-02-12T04:39:05.750Z,81.43
2019-02-12T04:41:37.245Z,81.86
2019-02-12T04:44:05.699Z,81.66
2019-02-12T04:46:34.724Z,81.33
2019-02-12T04:49:03.512Z,81.52
2019-02-12T04:51:32.179Z,81.11
2019-02-12T04:54:01.300Z,80.88
2019-02-12T04:56:29.719Z,81.46
2019-02-12T04:58:58.486Z,81.67
2019-02-12T05:01:27.146Z,81.51
2019-02-12T05:03:55.944Z,81.29
2019-02-12T05:06:24.928Z,81.60
2019-02-12T05:09:17.052Z,81.68
2019-02-12T05:12:11.025Z,81.54
2019-02-12T05:14:39.469Z,81.73
2019-02-12T05:17:08.418Z,81.66
2019-02-12T05:19:36.937Z,81.75
2019-02-12T05:22:05.352Z,81.71
2019-02-12T05:24:34.093Z,81.56
2019-02-12T05:27:02.527Z,81.75
2019-02-12T05:29:31.259Z,81.67
2019-02-12T05:32:00.214Z,82.44
2019-02-12T05:34:28.882Z,82.20
2019-02-12T05:36:57.590Z,82.14
2019-02-12T05:39:26.307Z,82.27
2019-02-12T05:41:55.267Z,82.26
2019-02-12T05:44:24.232Z,82.40
2019-02-12T05:46:53.009Z,82.45
2019-02-12T05:49:21.447Z,82.60
2019-02-12T05:51:50.423Z,82.58
2019-02-12T05:54:18.865Z,82.68
2019-02-12T05:56:47.555Z,82.69
2019-02-12T05:59:16.281Z,83.36
2019-02-12T06:01:44.734Z,83.78
2019-02-12T06:04:13.516Z,83.81
2019-02-12T06:06:41.937Z,84.18
2019-02-12T06:09:10.678Z,84.14
2019-02-12T06:11:39.800Z,84.55
2019-02-12T06:14:08.241Z,84.55
2019-02-12T06:16:37.189Z,84.80
2019-02-12T06:19:05.861Z,84.95
2019-02-12T06:21:34.638Z,84.95
2019-02-12T06:24:03.069Z,85.28
2019-02-12T06:26:31.528Z,85.21
2019-02-12T06:29:00.291Z,85.22
2019-02-12T06:31:29.083Z,85.42
2019-02-12T06:33:57.513Z,85.44
2019-02-12T06:36:25.959Z,85.47
2019-02-12T06:38:54.381Z,85.71
2019-02-12T06:41:23.078Z,85.67
2019-02-12T06:43:52.108Z,85.44
2019-02-12T06:46:20.571Z,85.55
2019-02-12T06:48:48.999Z,85.61
2019-02-12T06:51:20.523Z,85.75
2019-02-12T06:53:48.982Z,85.63
2019-02-12T06:56:17.937Z,85.55
2019-02-12T06:58:46.605Z,85.68
2019-02-12T07:01:15.354Z,85.63
2019-02-12T07:04:04.966Z,85.66
2019-02-12T07:07:07.046Z,85.81
2019-02-12T07:09:57.994Z,85.99
2019-02-12T07:12:59.570Z,85.98
2019-02-12T07:15:37.942Z,85.97
2019-02-12T07:18:26.240Z,85.63
2019-02-12T07:21:31.767Z,85.55
2019-02-12T07:24:36.737Z,85.62
2019-02-12T07:27:46.753Z,85.60
2019-02-12T07:30:46.969Z,85.42
2019-02-12T07:34:11.901Z,85.47
2019-02-12T07:36:52.970Z,85.53
2019-02-12T07:40:04.558Z,85.53
2019-02-12T07:42:48.439Z,85.61
2019-02-12T07:45:47.147Z,85.70
2019-02-12T07:48:45.208Z,85.30
2019-02-12T07:51:51.226Z,85.38
2019-02-12T07:55:01.335Z,85.28
2019-02-12T07:57:59.628Z,85.37
2019-02-12T08:00:40.743Z,85.29
2019-02-12T08:03:38.306Z,84.99
2019-02-12T08:06:39.384Z,85.04
2019-02-12T08:10:04.346Z,85.06
2019-02-12T08:13:14.958Z,84.86
2019-02-12T08:16:20.437Z,84.67
2019-02-12T08:19:30.990Z,84.96
2019-02-12T08:22:30.587Z,84.81
2019-02-12T08:25:09.889Z,84.75
2019-02-12T08:27:54.185Z,84.56
2019-02-12T08:30:38.909Z,84.64
2019-02-12T08:33:37.625Z,84.19
2019-02-12T08:36:38.465Z,83.68
2019-02-12T08:39:18.493Z,84.17
2019-02-12T08:42:10.376Z,84.02
2019-02-12T08:44:49.969Z,83.88
2019-02-12T08:48:03.585Z,83.78
2019-02-12T08:50:53.997Z,83.84
2019-02-12T08:53:50.581Z,83.72
2019-02-12T08:56:25.993Z,83.26
2019-02-12T08:59:11.325Z,83.30
2019-02-12T09:01:58.897Z,83.14
2019-02-12T09:04:36.783Z,83.31
2019-02-12T09:07:18.971Z,82.77
2019-02-12T09:10:18.452Z,83.19
2019-02-12T09:13:09.424Z,83.27
2019-02-12T09:16:18.016Z,82.50
2019-02-12T09:18:57.151Z,82.84
2019-02-12T09:21:46.247Z,83.03
2019-02-12T09:24:45.122Z,83.10
2019-02-12T09:27:27.002Z,83.18
2019-02-12T09:30:37.497Z,82.92
2019-02-12T09:33:29.997Z,82.38
2019-02-12T09:36:58.075Z,82.13
2019-02-12T09:39:59.052Z,82.11
2019-02-12T09:42:49.347Z,82.58
2019-02-12T09:45:49.846Z,82.99
2019-02-12T09:48:32.620Z,82.99
2019-02-12T09:51:54.742Z,82.90
2019-02-12T09:54:40.115Z,82.31
2019-02-12T09:57:36.995Z,81.97
2019-02-12T10:00:29.980Z,81.93
2019-02-12T10:03:33.496Z,80.70
2019-02-12T10:06:46.499Z,79.21
2019-02-12T10:09:47.949Z,78.47
2019-02-12T10:12:45.213Z,77.70
2019-02-12T10:15:47.996Z,75.62
2019-02-12T10:18:25.509Z,75.74
2019-02-12T10:21:29.647Z,74.53
2019-02-12T10:24:19.962Z,75.04
2019-02-12T10:27:01.997Z,75.30
2019-02-12T10:30:08.664Z,74.79
2019-02-12T10:32:35.974Z,74.93
2019-02-12T10:35:04.760Z,75.39
2019-02-12T10:37:33.196Z,75.93
2019-02-12T10:40:01.637Z,75.68
2019-02-12T10:42:30.363Z,75.98
2019-02-12T10:44:59.076Z,75.52
2019-02-12T10:47:27.531Z,72.28
2019-02-12T10:49:56.316Z,69.83
2019-02-12T10:52:25.062Z,68.96
2019-02-12T10:54:53.513Z,68.80
2019-02-12T10:57:22.634Z,69.08
2019-02-12T10:59:51.397Z,67.70
2019-02-12T11:02:20.461Z,66.89
2019-02-12T11:04:49.455Z,69.18
2019-02-12T11:07:18.204Z,68.68
2019-02-12T11:09:46.923Z,67.10
2019-02-12T11:12:15.916Z,66.01
2019-02-12T11:14:44.366Z,65.07
2019-02-12T11:17:12.796Z,64.01
2019-02-12T11:19:41.231Z,65.98
2019-02-12T11:22:09.663Z,64.85
2019-02-12T11:24:38.108Z,66.76
2019-02-12T11:27:07.205Z,66.76
2019-02-12T11:29:36.011Z,66.86
2019-02-12T11:32:04.567Z,67.90
2019-02-12T11:34:33.378Z,68.94
2019-02-12T11:37:01.820Z,68.58
2019-02-12T11:39:30.262Z,69.34
2019-02-12T11:41:59.014Z,68.16
2019-02-12T11:44:27.724Z,70.25
2019-02-12T11:46:56.494Z,70.18
2019-02-12T11:49:27.843Z,70.72
2019-02-12T11:51:56.631Z,71.81
2019-02-12T11:54:25.576Z,71.64
2019-02-12T11:56:54.319Z,71.66
2019-02-12T11:59:22.764Z,72.69
2019-02-12T12:01:51.214Z,73.12
2019-02-12T12:04:22.737Z,73.19
2019-02-12T12:06:51.517Z,72.02
2019-02-12T12:09:19.963Z,71.33
2019-02-12T12:11:48.409Z,71.15
2019-02-12T12:14:17.173Z,71.25
2019-02-12T12:16:45.930Z,69.81
2019-02-12T12:19:15.339Z,69.22
2019-02-12T12:21:45.494Z,70.11
2019-02-12T12:24:14.566Z,68.59
2019-02-12T12:26:43.345Z,68.10
2019-02-12T12:29:11.775Z,67.11
2019-02-12T12:31:40.475Z,65.22
2019-02-12T12:34:09.201Z,62.82
2019-02-12T12:36:37.989Z,57.82
2019-02-12T12:39:07.009Z,55.30
2019-02-12T12:41:35.567Z,55.21
2019-02-12T12:44:04.253Z,52.10
2019-02-12T12:46:33.247Z,54.06
2019-02-12T12:49:01.683Z,52.26
2019-02-12T12:51:31.618Z,48.91
2019-02-12T12:54:00.056Z,49.46
2019-02-12T12:56:28.516Z,50.37
2019-02-12T12:58:57.245Z,51.45
2019-02-12T13:01:26.013Z,51.22
2019-02-12T13:03:54.419Z,51.41
2019-02-12T13:06:23.095Z,55.55
2019-02-12T13:08:51.771Z,56.67
2019-02-12T13:11:20.710Z,57.98
2019-02-12T13:13:49.395Z,59.08
2019-02-12T13:16:17.818Z,59.35
2019-02-12T13:18:46.560Z,60.54
2019-02-12T13:21:15.662Z,60.54
2019-02-12T13:23:44.446Z,61.63
2019-02-12T13:26:13.225Z,63.73
2019-02-12T13:28:42.000Z,64.26
2019-02-12T13:31:10.485Z,64.77
2019-02-12T13:33:39.285Z,65.04
2019-02-12T13:36:08.082Z,63.95
2019-02-12T13:38:38.048Z,64.29
2019-02-12T13:41:07.084Z,64.71
2019-02-12T13:43:35.979Z,64.97
2019-02-12T13:46:04.421Z,65.42
2019-02-12T13:48:33.529Z,65.02
2019-02-12T13:51:02.235Z,64.34
2019-02-12T13:53:30.687Z,65.63
2019-02-12T13:55:59.114Z,64.65
2019-02-12T13:58:27.624Z,64.51
2019-02-12T14:00:56.012Z,65.29
2019-02-12T14:03:24.819Z,65.08
2019-02-12T14:05:53.538Z,65.65
2019-02-12T14:08:21.989Z,67.11
2019-02-12T14:10:50.421Z,67.26
2019-02-12T14:13:20.301Z,66.92
2019-02-12T14:15:48.757Z,69.02
2019-02-12T14:18:17.207Z,68.25
2019-02-12T14:20:45.956Z,68.22
2019-02-12T14:23:14.743Z,68.35
2019-02-12T14:25:43.207Z,68.91
2019-02-12T14:28:11.743Z,68.79
2019-02-12T14:30:40.175Z,69.72
2019-02-12T14:33:08.618Z,70.26
2019-02-12T14:35:37.059Z,70.24
2019-02-12T14:38:05.511Z,70.85
2019-02-12T14:40:33.964Z,70.80
2019-02-12T14:43:02.405Z,71.42
2019-02-12T14:45:31.484Z,71.77
2019-02-12T14:48:00.846Z,71.61
2019-02-12T14:50:32.433Z,71.71
2019-02-12T14:53:01.526Z,72.00
2019-02-12T14:55:33.828Z,72.28
2019-02-12T14:58:00.135Z,71.24
2019-02-12T15:00:28.566Z,71.78
2019-02-12T15:02:57.405Z,71.66
2019-02-12T15:05:25.922Z,71.35
2019-02-12T15:07:54.670Z,71.30
2019-02-12T15:10:23.537Z,71.70
2019-02-12T15:12:52.318Z,71.49
2019-02-12T15:15:21.069Z,71.40
2019-02-12T15:17:49.786Z,70.71
2019-02-12T15:27:55.621Z,64.97
2019-02-12T15:30:24.715Z,65.93
2019-02-12T15:32:53.638Z,68.76
2019-02-12T15:35:22.698Z,70.79
2019-02-12T15:37:51.157Z,71.55
2019-02-12T15:40:19.655Z,72.46
2019-02-12T15:42:48.447Z,73.40
2019-02-12T15:45:17.439Z,73.76
2019-02-12T15:47:45.896Z,73.84
2019-02-12T15:50:14.607Z,74.11
2019-02-12T15:52:43.053Z,74.28
2019-02-12T15:55:12.571Z,74.16
2019-02-12T15:57:43.695Z,74.63
2019-02-12T16:00:15.492Z,74.93
2019-02-12T16:02:44.096Z,75.05
2019-02-12T16:05:12.702Z,74.90
2019-02-12T16:07:42.610Z,74.93
2019-02-12T16:10:14.895Z,75.31
2019-02-12T16:12:44.037Z,75.40
2019-02-12T16:15:14.591Z,75.59
2019-02-12T16:17:43.044Z,75.65
2019-02-12T16:20:11.839Z,75.63
2019-02-12T16:22:40.629Z,75.97
2019-02-12T16:25:09.562Z,76.15
2019-02-12T16:27:38.008Z,76.34
2019-02-12T16:30:09.326Z,76.63
2019-02-12T16:32:38.036Z,76.77
2019-02-12T16:35:07.679Z,77.13
2019-02-12T16:37:36.427Z,77.39
2019-02-12T16:40:05.875Z,77.38
2019-02-12T16:42:34.312Z,77.21
2019-02-12T16:45:02.952Z,77.35
2019-02-12T16:47:31.697Z,77.51
2019-02-12T16:50:00.479Z,77.45
2019-02-12T16:52:29.261Z,77.47
2019-02-12T16:54:57.712Z,77.65
2019-02-12T16:57:26.168Z,77.56
2019-02-12T16:59:54.878Z,77.62
2019-02-12T17:02:23.848Z,77.45
2019-02-12T17:04:52.321Z,77.37
2019-02-12T17:07:21.014Z,77.55
2019-02-12T17:09:52.391Z,77.65
2019-02-12T17:12:20.900Z,77.38
2019-02-12T17:14:49.972Z,77.50
2019-02-12T17:17:18.660Z,77.36
2019-02-12T17:19:47.118Z,77.32
2019-02-12T17:22:15.587Z,77.29
2019-02-12T17:24:44.085Z,77.38
2019-02-12T17:27:12.585Z,77.17
2019-02-12T17:29:41.259Z,76.87
2019-02-12T17:32:09.768Z,76.89
2019-02-12T17:34:38.454Z,76.73
2019-02-12T17:37:07.231Z,76.62
2019-02-12T17:39:35.944Z,76.56
2019-02-12T17:42:04.418Z,76.70
2019-02-12T17:44:33.139Z,76.55
2019-02-12T17:47:02.187Z,76.52
2019-02-12T17:49:30.642Z,76.50
2019-02-12T17:51:59.350Z,76.40
2019-02-12T17:54:28.144Z,76.42
2019-02-12T17:56:56.677Z,76.30
2019-02-12T17:59:25.548Z,76.29
2019-02-12T18:01:53.967Z,76.17
2019-02-12T18:04:23.080Z,76.07
2019-02-12T18:06:51.914Z,75.66
2019-02-12T18:09:20.974Z,75.98
2019-02-12T18:11:49.430Z,75.63
2019-02-12T18:14:17.887Z,75.50
2019-02-12T18:16:46.345Z,75.27
2019-02-12T18:19:14.850Z,75.22
2019-02-12T18:21:43.885Z,75.40
2019-02-12T18:24:12.347Z,75.36
2019-02-12T18:26:40.803Z,75.14
2019-02-12T18:29:09.551Z,74.98
2019-02-12T18:31:38.309Z,74.86
2019-02-12T18:34:07.094Z,75.22
2019-02-12T18:36:35.898Z,74.58
2019-02-12T18:39:05.054Z,74.60
2019-02-12T18:41:34.193Z,74.36
2019-02-12T18:44:02.632Z,74.57
2019-02-12T18:46:31.133Z,74.32
2019-02-12T18:49:00.233Z,74.78
2019-02-12T18:51:29.036Z,74.47
2019-02-12T18:53:57.766Z,74.32
2019-02-12T18:56:26.210Z,74.48
2019-02-12T18:58:54.986Z,74.41
2019-02-12T19:01:23.450Z,74.12
2019-02-12T19:03:52.155Z,74.31
2019-02-12T19:06:20.607Z,74.13
2019-02-12T19:08:50.043Z,74.46
2019-02-12T19:11:18.537Z,74.32
2019-02-12T19:13:47.010Z,74.24
2019-02-12T19:16:15.793Z,74.02
2019-02-12T19:18:44.287Z,74.10
2019-02-12T19:21:12.743Z,74.21
2019-02-12T19:23:41.448Z,74.31
2019-02-12T19:26:10.223Z,74.34
2019-02-12T19:28:38.984Z,74.27
2019-02-12T19:31:07.458Z,74.28
2019-02-12T19:33:36.486Z,74.11
2019-02-12T19:36:05.274Z,74.21
2019-02-12T19:38:34.002Z,74.17
2019-02-12T19:41:02.442Z,74.28
2019-02-12T19:43:31.526Z,74.36
2019-02-12T19:46:00.244Z,74.48
2019-02-12T19:48:28.727Z,74.82
2019-02-12T19:50:57.482Z,74.75
2019-02-12T19:53:26.514Z,74.71
2019-02-12T19:55:55.212Z,74.95
2019-02-12T19:58:23.911Z,74.99
2019-02-12T20:00:52.613Z,75.14
2019-02-12T20:03:21.077Z,75.11
2019-02-12T20:05:49.529Z,75.38
2019-02-12T20:08:17.983Z,75.39
2019-02-12T20:10:46.687Z,75.33
2019-02-12T20:13:15.874Z,75.75
2019-02-12T20:15:44.312Z,75.86
2019-02-12T20:18:14.092Z,76.03
2019-02-12T20:20:43.160Z,76.19
2019-02-12T20:23:12.110Z,76.32
2019-02-12T20:25:40.576Z,76.34
2019-02-12T20:28:09.542Z,76.53
2019-02-12T20:30:37.989Z,76.55
2019-02-12T20:33:06.480Z,76.70
2019-02-12T20:35:36.259Z,76.86
2019-02-12T20:38:05.157Z,76.93
2019-02-12T20:40:33.858Z,77.14
2019-02-12T20:43:02.552Z,77.19
2019-02-12T20:45:32.190Z,77.28
2019-02-12T20:48:00.941Z,77.15
2019-02-12T20:50:29.411Z,77.31
2019-02-12T20:52:58.251Z,77.39
2019-02-12T20:55:27.013Z,77.44
2019-02-12T20:57:55.480Z,77.45
2019-02-12T21:00:23.997Z,77.69
2019-02-12T21:02:52.744Z,77.92
2019-02-12T21:05:21.260Z,77.92
2019-02-12T21:07:51.827Z,77.89
2019-02-12T21:10:20.306Z,77.99
2019-02-12T21:12:48.984Z,78.08
2019-02-12T21:15:19.222Z,78.03
2019-02-12T21:17:47.940Z,78.20
2019-02-12T21:20:16.675Z,78.39
2019-02-12T21:22:45.423Z,78.31
2019-02-12T21:25:14.097Z,78.19
2019-02-12T21:27:42.558Z,78.25
2019-02-12T21:30:13.726Z,78.06
2019-02-12T21:32:42.228Z,78.18
2019-02-12T21:35:11.101Z,78.02
2019-02-12T21:37:39.555Z,78.18
2019-02-12T21:40:11.635Z,78.08
2019-02-12T21:42:39.609Z,78.19
2019-02-12T21:45:08.889Z,77.88
2019-02-12T21:47:37.315Z,77.95
2019-02-12T21:50:06.061Z,78.01
2019-02-12T21:52:34.530Z,78.00
2019-02-12T21:55:03.238Z,77.88
2019-02-12T21:57:32.244Z,77.82
2019-02-12T22:00:00.767Z,77.78
2019-02-12T22:02:29.735Z,77.75
2019-02-12T22:04:58.212Z,77.42
2019-02-12T22:07:26.667Z,77.61
2019-02-12T22:09:55.613Z,77.32
2019-02-12T22:12:24.324Z,77.17
2019-02-12T22:14:53.050Z,77.19
2019-02-12T22:17:21.748Z,77.06
2019-02-12T22:19:50.438Z,77.04
2019-02-12T22:22:18.905Z,76.84
2019-02-12T22:24:47.607Z,76.94
2019-02-12T22:27:16.061Z,76.62
2019-02-12T22:29:44.521Z,76.34
2019-02-12T22:32:12.980Z,76.49
2019-02-12T22:34:41.443Z,76.12
2019-02-12T22:37:10.173Z,75.73
2019-02-12T22:39:39.543Z,75.75
2019-02-12T22:42:08.031Z,75.75
2019-02-12T22:44:36.473Z,75.62
2019-02-12T22:47:05.166Z,75.73
2019-02-12T22:49:33.908Z,75.65
2019-02-12T22:52:02.393Z,75.50
2019-02-12T22:54:31.073Z,75.21
2019-02-12T22:56:59.775Z,75.37
2019-02-12T22:59:28.483Z,75.50
2019-02-12T23:01:57.421Z,75.17
2019-02-12T23:04:26.119Z,75.33
2019-02-12T23:06:55.089Z,75.08
2019-02-12T23:09:23.522Z,74.81
2019-02-12T23:11:52.231Z,74.77
2019-02-12T23:14:20.955Z,74.48
2019-02-12T23:16:49.518Z,74.35
2019-02-12T23:19:18.072Z,74.50
2019-02-12T23:21:46.817Z,74.55
2019-02-12T23:24:15.284Z,74.69
2019-02-12T23:26:43.779Z,74.50
2019-02-12T23:29:12.479Z,74.40
2019-02-12T23:31:41.196Z,74.50
2019-02-12T23:34:09.659Z,74.40
2019-02-12T23:36:38.159Z,74.55
2019-02-12T23:39:06.600Z,74.83
2019-02-12T23:41:35.080Z,74.65
2019-02-12T23:44:03.520Z,74.87
2019-02-12T23:46:32.244Z,74.93
2019-02-12T23:49:03.430Z,75.16
2019-02-12T23:51:31.916Z,75.01
2019-02-12T23:54:00.655Z,75.02
2019-02-12T23:56:29.381Z,75.20
2019-02-12T23:58:58.077Z,75.29
